Bob Hope Airport
KBUR : now visible

Airfield :











YOU CAN JOIN US ON...

 
LOGIN :

Register | Disclaimer

   EN    FR    IT 

 









Legend :    VFR   Marginal VFR   IFR   Intensive IFR   Very Intensive IFR
Visi :
Ceiling :
>= 8 km
>= 3000ft
5 to 8 km
1000 to 3000 ft
1500m to 5 km
500 to 1000 ft
800 to 1500m
200 to 500 ft
< 800m
< 200 ft
Symbols :   Thunderstorms  Fog  Heavy snow  Heavy precipitations  Wind > 20 kt






- Airport Elevation : 778 ft
- IATA code : BUR


KBUR - Bob Hope

CURRENT METAR :
  • 250953Z 11004KT 10SM CLR 16/13 A2998 RMK AO2 SLP139 T01610133 $

EXPIRED METARs :
  • 250853Z 09006KT 10SM CLR 17/13 A2998 RMK AO2 SLP139 T01670128 56004 $
  • 250753Z 12005KT 10SM CLR 17/13 A2998 RMK AO2 SLP140 T01720133 402670156 $

TAF KBUR
Valid from the 25 at 06:00 until the 26 at 06:00 UTC


250527Z 2506/2606 13005KT P6SM SKC
FM252000 18010KT P6SM SKC
FM260400 13006KT P6SM SKC
KZLA FIR / North America



MET'MAP, your aeronautical weather chart ! - Copyright ORBIFLY December 2007 - Disclaimer

ORBIFLY MET'MAP TEAM :

Programming & Development : Alexandra Zaïnal
Concept & original design : Baudouin d'Aumeries
Assistance for programming : Marc-Olivier Méhu
Technical & hardware support : Manuel Goepfert

Contact : metmap@orbifly.com




SOURCES & CREDITS :

   NOAA       Earth
Advisory